Lähimpiä lentokenttien sääasemia

 

EFHK - Helsinki/Vantaa, Finland
Ilmasuunta ja etäisyys Sääasema Lakkasuosta: IKO 25km
Päivitetty: 19/02/2018 17:20
Selkeätä
Selkeätä
 Tuulen suunta P
Tuuli: P 13 km/h
Lämpötila: -9°C
Hyytävyys: -15°C
Kastepiste: -12°C
Kosteus: 79%
Ilmanpaine: 1025 hPa
Yhteenveto: Selkeätä
Näkyvyys: enemmän kuin 10 km
2018/02/19 15:20 EFHK 191520Z 35007KT CAVOK M09/M12 Q1025 NOSIG
EFHF - Helsinki/Malmi, Finland
Ilmasuunta ja etäisyys Sääasema Lakkasuosta: I 29km
Päivitetty: 06/03/2017 17:50
NOT Current
Selkeätä
Selkeätä
 Tuulen suunta KO
Tuuli: KO 11 km/h
Lämpötila: -2°C
Hyytävyys: -6°C
Kastepiste: -11°C
Kosteus: 51%
Ilmanpaine: 1021 hPa
Yhteenveto: Selkeätä
Näkyvyys: enemmän kuin 10 km
2017/03/06 15:50 EFHF 061550Z 04006KT 330V100 CAVOK M02/M11 Q1021
 
EETN - Tallinn, Estonia
Ilmasuunta ja etäisyys Sääasema Lakkasuosta: E 97km
Päivitetty: 19/02/2018 17:20
Vaihtelevaa
Vaihtelevaa
 Tuulen suunta P
Tuuli: P 7 km/h
Lämpötila: -5°C
Hyytävyys: -8°C
Kastepiste: -7°C
Kosteus: 86%
Ilmanpaine: 1025 hPa
Pilvet: Vaihtelevaa
Näkyvyys: 8 km
Pilvitiedot: Vaihtelevaa 274 m
2018/02/19 15:20 EETN 191520Z 01004KT 8000 OVC009 M05/M07 Q1025 R08/420195 NOSIG
EFTU - Turku/Abo, Finland
Ilmasuunta ja etäisyys Sääasema Lakkasuosta: LLU 127km
Päivitetty: 19/02/2018 17:20
Selkeätä
Selkeätä
 Tuulen suunta KO
Tuuli: KO 7 km/h
Lämpötila: -8°C
Hyytävyys: -12°C
Kastepiste: -11°C
Kosteus: 79%
Ilmanpaine: 1027 hPa
Yhteenveto: Selkeätä
Näkyvyys: enemmän kuin 10 km
2018/02/19 15:20 EFTU 191520Z AUTO 04004KT CAVOK M08/M11 Q1027
 
EFTP - Tampere/Pirkkala, Finland
Ilmasuunta ja etäisyys Sääasema Lakkasuosta: PLU 138km
Päivitetty: 19/02/2018 17:20
Selkeätä
Selkeätä
 Tuulen suunta P
Tuuli: P 7 km/h
Lämpötila: -9°C
Hyytävyys: -13°C
Kastepiste: -12°C
Kosteus: 79%
Ilmanpaine: 1027 hPa
Yhteenveto: Selkeätä
Näkyvyys: enemmän kuin 10 km
2018/02/19 15:20 EFTP 191520Z AUTO 36004KT CAVOK M09/M12 Q1027
EFPO - Pori (mil/Civ), Finland
Ilmasuunta ja etäisyys Sääasema Lakkasuosta: LU 199km
Päivitetty: 19/02/2018 17:20
Selkeätä
Selkeätä
 Tuulen suunta varies
Tuuli: varies 4 km/h
Lämpötila: -7°C
Kastepiste: -11°C
Kosteus: 73%
Ilmanpaine: 1028 hPa
Yhteenveto: Selkeätä
Näkyvyys: enemmän kuin 10 km
2018/02/19 15:20 EFPO 191520Z AUTO VRB02KT CAVOK M07/M11 Q1028
 
EFLP - Lappeenranta, Finland
Ilmasuunta ja etäisyys Sääasema Lakkasuosta: IKO 216km
Päivitetty: 19/02/2018 17:20
Light snow, Selkeätä
Light snow, Selkeätä
 Tuulen suunta PLU
Tuuli: PLU 11 km/h
Lämpötila: -11°C
Hyytävyys: -17°C
Kastepiste: -13°C
Kosteus: 85%
Ilmanpaine: 1024 hPa
Yhteenveto: Light Snow
Pilvet: Selkeätä
Näkyvyys: 4 km
2018/02/19 15:20 EFLP 191520Z AUTO 34006KT 4400 -SN SKC M11/M13 Q1024
EFMI - Mikkeli, Finland
Ilmasuunta ja etäisyys Sääasema Lakkasuosta: KO 220km
Päivitetty: 19/02/2018 17:20
Selkeätä
Selkeätä
 Tuulen suunta LU
Tuuli: LU 6 km/h
Lämpötila: -10°C
Kastepiste: -12°C
Kosteus: 85%
Ilmanpaine: 1025 hPa
Yhteenveto: Selkeätä
Näkyvyys: enemmän kuin 10 km
2018/02/19 15:20 EFMI 191520Z AUTO 32003KT CAVOK M10/M12 Q1025
 
EFJY - Jyvaskyla (mil/C, Finland
Ilmasuunta ja etäisyys Sääasema Lakkasuosta: PKO 245km
Päivitetty: 19/02/2018 17:20
Light snow, Osittain pilvistä
Light snow, Osittain pilvistä
 Tuulen suunta PLU
Tuuli: PLU 9 km/h
Lämpötila: -12°C
Hyytävyys: -18°C
Kastepiste: -14°C
Kosteus: 85%
Ilmanpaine: 1026 hPa
Yhteenveto: Light Snow
Pilvet: Osittain pilvistä
Näkyvyys: 10 km
Pilvitiedot: Osittain pilvistä 488 m
2018/02/19 15:20 EFJY 191520Z AUTO 33005KT 9999 -SN FEW016 M12/M14 Q1026
EFMA - Mariehamn/Aland, Finland
Ilmasuunta ja etäisyys Sääasema Lakkasuosta: L 257km
Päivitetty: 19/02/2018 17:20
Vaihtelevaa
Vaihtelevaa
 Tuulen suunta P
Tuuli: P 15 km/h
Lämpötila: -6°C
Hyytävyys: -12°C
Kastepiste: -8°C
Kosteus: 86%
Ilmanpaine: 1027 hPa
Pilvet: Vaihtelevaa
Näkyvyys: 10 km
Pilvitiedot: Vaihtelevaa 396 m
2018/02/19 15:20 EFMA 191520Z AUTO 01008KT 9999 OVC013 M06/M08 Q1027
 
EFVR - Varkaus, Finland
Ilmasuunta ja etäisyys Sääasema Lakkasuosta: KO 277km
Päivitetty: 15/04/2016 08:50
NOT Current
Selkeätä
Selkeätä
 Tuulen suunta PLU
Tuuli: PLU 15 km/h
Lämpötila: -1°C
Hyytävyys: -6°C
Kastepiste: -8°C
Kosteus: 59%
Ilmanpaine: 1005 hPa
Yhteenveto: Selkeätä
Näkyvyys: enemmän kuin 10 km
2016/04/15 05:50 EFVR 150550Z AUTO 33008KT CAVOK M01/M08 Q1005
EFSI - Seinajoki-Ilmajo, Finland
Ilmasuunta ja etäisyys Sääasema Lakkasuosta: PLU 285km
Päivitetty: 19/02/2018 17:20
Selkeätä
Selkeätä
 Tuulen suunta PLU
Tuuli: PLU 9 km/h
Lämpötila: -12°C
Hyytävyys: -18°C
Kastepiste: -14°C
Kosteus: 85%
Ilmanpaine: 1028 hPa
Yhteenveto: Selkeätä
Näkyvyys: enemmän kuin 10 km
2018/02/19 15:20 EFSI 191520Z AUTO 34005KT CAVOK M12/M14 Q1028
 
KSJC - San Jose, California, USA
Ilmasuunta ja etäisyys Sääasema Lakkasuosta: PLU 8758km
Päivitetty: 19/02/2018 16:53
Puolipilvistä
Puolipilvistä
 Tuulen suunta L
Tuuli: L 15 km/h
Lämpötila: 6°C
Hyytävyys: 3°C
Kastepiste: -1°C
Kosteus: 61%
Ilmanpaine: 1014.9 hPa
Pilvet: Puolipilvistä
Näkyvyys: 16 km
Pilvitiedot: Osittain pilvistä 244 m
Puolipilvistä 671 m
2018/02/19 14:53 KSJC 191453Z 27008KT 10SM FEW008 SCT022 06/M01 A2997 RMK AO2 SLP148 T00561006 57003